Station Historical Data
Daily Summary for May 10, 2017 Units:  Metric    English   Both
« Previous Day
Next Day »
Daily Weekly Monthly Yearly Custom
  High: Low: Average:
Temperature: 29.7 °C 16.5 °C 22.7 °C
Dew Point: 16.8 °C 12.8 °C 14.6 °C
Humidity: 83% 38% 62%
Wind Speed: 3.2km/h 0km/h 0.2km/h
Wind Gust: 11.3km/h - -
Wind- - West
Pressure: 1018.8 hPa 1015.5 hPa -
Precipitation: 0 mm    
Historical Graphs
 
 
Tabular Data for May 10, 2017
Time Temperature Dew Point Pressure Wind Wind Speed Wind Gust Humidity Rainfall Rate (Hourly) Conditions
00:00 18.8 °C 13.2 °C 1016.5 hPa Calm     70% 0 mm SCT
00:15 18.8 °C 13.2 °C 1016.5 hPa Calm     70% 0 mm SCT
00:30 18.8 °C 13.4 °C 1016.5 hPa Calm     71% 0 mm SCT
00:45 18.8 °C 13.2 °C 1016.5 hPa Calm     70% 0 mm SCT
01:00 18.8 °C 13.2 °C 1016.5 hPa Calm     70% 0 mm SCT
01:15 18 °C 13.3 °C 1016.5 hPa Calm     74% 0 mm SCT
01:30 18 °C 13.3 °C 1016.5 hPa Calm     74% 0 mm SCT
01:45 18 °C 13.3 °C 1016.5 hPa Calm     74% 0 mm SCT
02:00 18 °C 13.3 °C 1016.5 hPa Calm     74% 0 mm SCT
02:15 17.6 °C 13.3 °C 1016.5 hPa Calm     76% 0 mm SCT
02:30 17.3 °C 13.3 °C 1016.5 hPa Calm     77% 0 mm SCT
02:45 17.2 °C 13.3 °C 1016.1 hPa Calm     78% 0 mm SCT
03:00 17 °C 13.3 °C 1016.1 hPa Calm     79% 0 mm SCT
03:15 16.9 °C 13.3 °C 1016.1 hPa Calm     79% 0 mm SCT
03:30 16.5 °C 12.8 °C 1016.1 hPa Calm     79% 0 mm SCT
03:45 16.5 °C 12.8 °C 1016.5 hPa Calm     79% 0 mm SCT
04:00 16.5 °C 12.8 °C 1016.5 hPa Calm     79% 0 mm SCT
04:15 16.5 °C 12.8 °C 1016.5 hPa Calm     79% 0 mm SCT
04:30 16.5 °C 12.8 °C 1016.5 hPa Calm     79% 0 mm SCT
04:45 16.5 °C 12.8 °C 1016.8 hPa Calm     79% 0 mm SCT
05:00 16.5 °C 12.8 °C 1016.8 hPa Calm     79% 0 mm SCT
05:15 16.5 °C 12.8 °C 1016.8 hPa Calm     79% 0 mm SCT
05:30 16.5 °C 12.8 °C 1017.2 hPa Calm     79% 0 mm SCT
05:45 16.5 °C 12.8 °C 1017.2 hPa Calm     79% 0 mm SCT
06:00 16.5 °C 12.8 °C 1017.2 hPa Calm     79% 0 mm SCT
06:15 16.5 °C 12.8 °C 1017.5 hPa Calm     79% 0 mm SCT
06:30 16.5 °C 12.8 °C 1017.5 hPa Calm     79% 0 mm SCT
06:45 16.5 °C 12.8 °C 1017.8 hPa Calm     79% 0 mm SCT
07:00 16.5 °C 12.8 °C 1017.8 hPa Calm     79% 0 mm SCT
07:15 16.5 °C 12.8 °C 1018.2 hPa Calm     79% 0 mm SCT
07:30 16.5 °C 12.8 °C 1018.2 hPa Calm     79% 0 mm SCT
07:45 16.5 °C 12.8 °C 1018.2 hPa Calm     79% 0 mm SCT
08:00 17.2 °C 13.9 °C 1018.5 hPa Calm     81% 0 mm SCT
08:15 18.1 °C 15.2 °C 1018.5 hPa Calm     83% 0 mm SCT
08:30 18.8 °C 15.7 °C 1018.5 hPa Calm     82% 0 mm SCT
08:45 19.6 °C 16.1 °C 1018.5 hPa Calm     80% 0 mm SCT
09:00 20.6 °C 16 °C 1018.5 hPa Calm   1.6 km/h 75% 0 mm SCT
09:15 21.7 °C 16.2 °C 1018.8 hPa Calm   1.6 km/h 71% 0 mm SCT
09:30 23.1 °C 16.8 °C 1018.5 hPa Calm   1.6 km/h 68% 0 mm SCT
09:45 23.6 °C 16.6 °C 1018.8 hPa Calm   3.2 km/h 65% 0 mm SCT
10:00 24.1 °C 16.6 °C 1018.8 hPa Calm   3.2 km/h 63% 0 mm SCT
10:15 24.7 °C 16.4 °C 1018.5 hPa Calm   4.8 km/h 60% 0 mm SCT
10:30 24.9 °C 16.7 °C 1018.5 hPa Calm   8 km/h 60% 0 mm SCT
10:45 25.4 °C 16.5 °C 1018.8 hPa Calm   4.8 km/h 58% 0 mm SCT
11:00 25.7 °C 16.3 °C 1018.5 hPa Calm   3.2 km/h 56% 0 mm SCT
11:15 25.8 °C 16.4 °C 1018.5 hPa Calm   4.8 km/h 56% 0 mm SCT
11:30 26.3 °C 16.2 °C 1018.8 hPa Calm   3.2 km/h 54% 0 mm SCT
11:45 26.3 °C 15.7 °C 1018.8 hPa SSW 1.6 km/h 8 km/h 52% 0 mm SCT
12:00 26.4 °C 16.1 °C 1018.8 hPa WSW 1.6 km/h 8 km/h 53% 0 mm SCT
12:15 26.7 °C 15.4 °C 1018.8 hPa WSW 1.6 km/h 8 km/h 50% 0 mm SCT
12:30 27.3 °C 15.9 °C 1018.5 hPa WSW 1.6 km/h 8 km/h 50% 0 mm SCT
12:45 27.7 °C 16.3 °C 1018.2 hPa WSW 1.6 km/h 9.7 km/h 50% 0 mm SCT
13:00 28.4 °C 15 °C 1017.8 hPa SSW 3.2 km/h 8 km/h 44% 0 mm SCT
13:15 28.9 °C 15.8 °C 1017.8 hPa NW 1.6 km/h 3.2 km/h 45% 0 mm SCT
13:30 29 °C 15.5 °C 1017.8 hPa WSW 1.6 km/h 9.7 km/h 44% 0 mm SCT
13:45 28.7 °C 15.3 °C 1017.8 hPa Calm   8 km/h 44% 0 mm SCT
14:00 29.1 °C 14.9 °C 1017.8 hPa Calm   8 km/h 42% 0 mm SCT
14:15 28.7 °C 15.2 °C 1017.5 hPa Calm   11.3 km/h 44% 0 mm SCT
14:30 28.7 °C 14.9 °C 1017.5 hPa SW 3.2 km/h 8 km/h 43% 0 mm SCT
14:45 28.8 °C 15.4 °C 1017.2 hPa WNW 1.6 km/h 9.7 km/h 44% 0 mm SCT
15:00 29 °C 15.5 °C 1017.2 hPa NW 1.6 km/h 4.8 km/h 44% 0 mm SCT
15:15 29.2 °C 14.2 °C 1016.8 hPa Calm   3.2 km/h 40% 0 mm SCT
15:30 28.8 °C 14.2 °C 1016.8 hPa Calm   9.7 km/h 41% 0 mm SCT
15:45 28.7 °C 13.3 °C 1016.5 hPa Calm   8 km/h 39% 0 mm SCT
16:00 28.8 °C 14.9 °C 1016.5 hPa Calm   8 km/h 43% 0 mm SCT
16:15 28.8 °C 15.4 °C 1016.1 hPa Calm   8 km/h 44% 0 mm SCT
16:30 28.8 °C 15 °C 1016.1 hPa Calm   8 km/h 43% 0 mm SCT
16:45 28.9 °C 14.7 °C 1016.1 hPa Calm   4.8 km/h 42% 0 mm SCT
17:00 29.2 °C 14.2 °C 1015.8 hPa Calm   3.2 km/h 40% 0 mm SCT
17:15 29.7 °C 14.2 °C 1015.8 hPa Calm   3.2 km/h 39% 0 mm SCT
17:30 29.3 °C 13.6 °C 1015.8 hPa Calm     38% 0 mm SCT
17:45 29 °C 14.4 °C 1015.8 hPa Calm   3.2 km/h 41% 0 mm SCT
18:00 28.9 °C 14.3 °C 1015.8 hPa North 1.6 km/h 3.2 km/h 41% 0 mm SCT
18:15 28.8 °C 14.6 °C 1015.8 hPa Calm   4.8 km/h 42% 0 mm SCT
18:30 28.4 °C 14.6 °C 1015.8 hPa Calm   8 km/h 43% 0 mm SCT
18:45 27.8 °C 14.4 °C 1015.5 hPa Calm     44% 0 mm SCT
19:00 27.4 °C 15.4 °C 1015.5 hPa Calm     48% 0 mm SCT
19:15 26.9 °C 15.3 °C 1015.5 hPa Calm     49% 0 mm SCT
19:30 26.3 °C 15.7 °C 1015.5 hPa Calm     52% 0 mm SCT
19:45 26 °C 15.9 °C 1015.5 hPa Calm     54% 0 mm SCT
20:00 25.5 °C 15.5 °C 1015.5 hPa Calm     54% 0 mm SCT
20:15 24.8 °C 15.4 °C 1015.5 hPa Calm     56% 0 mm SCT
20:30 24.3 °C 15.2 °C 1015.5 hPa Calm     57% 0 mm SCT
20:45 23.8 °C 14.8 °C 1015.5 hPa Calm     57% 0 mm SCT
21:00 23.3 °C 15.1 °C 1015.8 hPa Calm     60% 0 mm SCT
21:15 22.9 °C 14.9 °C 1015.8 hPa Calm     61% 0 mm SCT
21:30 22.3 °C 14.9 °C 1015.8 hPa Calm     63% 0 mm SCT
21:45 21.9 °C 15.3 °C 1015.8 hPa Calm     66% 0 mm SCT
22:00 21.7 °C 15.3 °C 1016.1 hPa Calm     67% 0 mm SCT
22:15 21.5 °C 15.1 °C 1016.1 hPa Calm     67% 0 mm SCT
22:30 21.3 °C 15.4 °C 1016.5 hPa Calm     69% 0 mm SCT
22:45 21.1 °C 15.2 °C 1016.5 hPa Calm     69% 0 mm SCT
23:00 20.9 °C 15.4 °C 1016.5 hPa Calm     71% 0 mm SCT
23:15 20.7 °C 15.4 °C 1016.5 hPa Calm     72% 0 mm SCT
23:30 20.4 °C 15.4 °C 1016.5 hPa Calm     73% 0 mm SCT
23:45 20.3 °C 15.3 °C 1016.5 hPa Calm     73% 0 mm SCT
Piedmont Bend
Compliments of Weather Underground - 4 mb